sensor_id;sensor_type;location;lat;lon;timestamp;P1;durP1;ratioP1;P2;durP2;ratioP2
52838;SDS011;39219;53.678;9.856;2023-10-31T00:01:15;11.40;;;5.60;;
52838;SDS011;39219;53.678;9.856;2023-10-31T00:03:43;11.32;;;5.57;;
52838;SDS011;39219;53.678;9.856;2023-10-31T00:06:09;9.73;;;5.35;;
52838;SDS011;39219;53.678;9.856;2023-10-31T00:08:36;8.85;;;5.35;;
52838;SDS011;39219;53.678;9.856;2023-10-31T00:11:02;10.10;;;5.75;;
52838;SDS011;39219;53.678;9.856;2023-10-31T00:13:28;12.77;;;6.25;;
52838;SDS011;39219;53.678;9.856;2023-10-31T00:15:55;11.65;;;6.35;;
52838;SDS011;39219;53.678;9.856;2023-10-31T00:18:21;11.75;;;6.38;;
52838;SDS011;39219;53.678;9.856;2023-10-31T00:20:48;12.00;;;6.40;;
52838;SDS011;39219;53.678;9.856;2023-10-31T00:23:15;11.02;;;5.93;;
52838;SDS011;39219;53.678;9.856;2023-10-31T00:25:41;13.10;;;6.32;;
52838;SDS011;39219;53.678;9.856;2023-10-31T00:28:07;12.52;;;6.80;;
52838;SDS011;39219;53.678;9.856;2023-10-31T00:30:34;11.68;;;5.93;;
52838;SDS011;39219;53.678;9.856;2023-10-31T00:33:00;12.23;;;6.00;;
52838;SDS011;39219;53.678;9.856;2023-10-31T00:35:26;13.45;;;6.22;;
52838;SDS011;39219;53.678;9.856;2023-10-31T00:37:54;10.82;;;6.00;;
52838;SDS011;39219;53.678;9.856;2023-10-31T00:40:20;10.38;;;5.95;;
52838;SDS011;39219;53.678;9.856;2023-10-31T00:42:46;10.57;;;5.80;;
52838;SDS011;39219;53.678;9.856;2023-10-31T00:45:12;13.65;;;6.47;;
52838;SDS011;39219;53.678;9.856;2023-10-31T00:47:39;11.25;;;6.22;;
52838;SDS011;39219;53.678;9.856;2023-10-31T00:50:06;11.60;;;6.45;;
52838;SDS011;39219;53.678;9.856;2023-10-31T00:52:32;10.40;;;6.35;;
52838;SDS011;39219;53.678;9.856;2023-10-31T00:55:00;11.27;;;6.38;;
52838;SDS011;39219;53.678;9.856;2023-10-31T00:57:26;12.85;;;7.10;;
52838;SDS011;39219;53.678;9.856;2023-10-31T00:59:53;12.82;;;6.63;;
52838;SDS011;39219;53.678;9.856;2023-10-31T01:02:19;14.63;;;7.82;;
52838;SDS011;39219;53.678;9.856;2023-10-31T01:04:45;13.02;;;7.75;;
52838;SDS011;39219;53.678;9.856;2023-10-31T01:07:11;14.40;;;8.48;;
52838;SDS011;39219;53.678;9.856;2023-10-31T01:09:41;13.85;;;8.30;;
52838;SDS011;39219;53.678;9.856;2023-10-31T01:12:09;13.75;;;8.10;;
52838;SDS011;39219;53.678;9.856;2023-10-31T01:14:36;15.73;;;8.82;;
52838;SDS011;39219;53.678;9.856;2023-10-31T01:17:02;16.52;;;8.70;;
52838;SDS011;39219;53.678;9.856;2023-10-31T01:19:28;17.10;;;9.07;;
52838;SDS011;39219;53.678;9.856;2023-10-31T01:21:55;15.60;;;9.23;;
52838;SDS011;39219;53.678;9.856;2023-10-31T01:24:21;15.35;;;9.52;;
52838;SDS011;39219;53.678;9.856;2023-10-31T01:26:48;15.55;;;9.80;;
52838;SDS011;39219;53.678;9.856;2023-10-31T01:29:16;18.40;;;9.90;;
52838;SDS011;39219;53.678;9.856;2023-10-31T01:31:42;18.10;;;10.40;;
52838;SDS011;39219;53.678;9.856;2023-10-31T01:34:08;16.38;;;9.98;;
52838;SDS011;39219;53.678;9.856;2023-10-31T01:36:35;17.08;;;10.20;;
52838;SDS011;39219;53.678;9.856;2023-10-31T01:39:01;17.40;;;10.10;;
52838;SDS011;39219;53.678;9.856;2023-10-31T01:41:27;17.98;;;10.30;;
52838;SDS011;39219;53.678;9.856;2023-10-31T01:43:52;19.35;;;10.68;;
52838;SDS011;39219;53.678;9.856;2023-10-31T01:46:20;16.90;;;10.80;;
52838;SDS011;39219;53.678;9.856;2023-10-31T01:48:46;19.02;;;10.90;;
52838;SDS011;39219;53.678;9.856;2023-10-31T01:51:13;18.65;;;11.07;;
52838;SDS011;39219;53.678;9.856;2023-10-31T01:53:39;17.88;;;10.70;;
52838;SDS011;39219;53.678;9.856;2023-10-31T01:56:06;17.85;;;10.52;;
52838;SDS011;39219;53.678;9.856;2023-10-31T01:58:33;16.83;;;11.13;;
52838;SDS011;39219;53.678;9.856;2023-10-31T02:01:00;18.13;;;11.02;;
52838;SDS011;39219;53.678;9.856;2023-10-31T02:03:28;18.85;;;11.10;;
52838;SDS011;39219;53.678;9.856;2023-10-31T02:05:54;18.05;;;11.00;;
52838;SDS011;39219;53.678;9.856;2023-10-31T02:08:21;20.17;;;11.73;;
52838;SDS011;39219;53.678;9.856;2023-10-31T02:10:47;21.67;;;11.65;;
52838;SDS011;39219;53.678;9.856;2023-10-31T02:13:14;17.35;;;10.95;;
52838;SDS011;39219;53.678;9.856;2023-10-31T02:15:40;19.17;;;11.23;;
52838;SDS011;39219;53.678;9.856;2023-10-31T02:18:07;23.63;;;11.32;;
52838;SDS011;39219;53.678;9.856;2023-10-31T02:20:35;21.80;;;11.10;;
52838;SDS011;39219;53.678;9.856;2023-10-31T02:23:02;18.65;;;11.07;;
52838;SDS011;39219;53.678;9.856;2023-10-31T02:25:29;18.02;;;10.95;;
52838;SDS011;39219;53.678;9.856;2023-10-31T02:27:55;17.35;;;10.60;;
52838;SDS011;39219;53.678;9.856;2023-10-31T02:30:21;20.45;;;10.50;;
52838;SDS011;39219;53.678;9.856;2023-10-31T02:32:48;15.70;;;10.10;;
52838;SDS011;39219;53.678;9.856;2023-10-31T02:35:17;18.25;;;10.70;;
52838;SDS011;39219;53.678;9.856;2023-10-31T02:37:43;18.70;;;10.60;;
52838;SDS011;39219;53.678;9.856;2023-10-31T02:40:11;16.17;;;10.20;;
52838;SDS011;39219;53.678;9.856;2023-10-31T02:42:38;18.05;;;10.25;;
52838;SDS011;39219;53.678;9.856;2023-10-31T02:45:04;16.88;;;10.63;;
52838;SDS011;39219;53.678;9.856;2023-10-31T02:47:31;18.85;;;9.85;;
52838;SDS011;39219;53.678;9.856;2023-10-31T02:49:57;17.75;;;9.65;;
52838;SDS011;39219;53.678;9.856;2023-10-31T02:52:23;16.40;;;10.25;;
52838;SDS011;39219;53.678;9.856;2023-10-31T02:54:50;15.35;;;9.27;;
52838;SDS011;39219;53.678;9.856;2023-10-31T02:57:17;16.10;;;9.00;;
52838;SDS011;39219;53.678;9.856;2023-10-31T02:59:43;17.27;;;9.30;;
52838;SDS011;39219;53.678;9.856;2023-10-31T03:02:11;15.40;;;9.32;;
52838;SDS011;39219;53.678;9.856;2023-10-31T03:04:37;16.30;;;9.50;;
52838;SDS011;39219;53.678;9.856;2023-10-31T03:07:04;15.45;;;8.80;;
52838;SDS011;39219;53.678;9.856;2023-10-31T03:09:30;17.98;;;9.75;;
52838;SDS011;39219;53.678;9.856;2023-10-31T03:11:56;14.38;;;9.30;;
52838;SDS011;39219;53.678;9.856;2023-10-31T03:14:24;14.73;;;9.15;;
52838;SDS011;39219;53.678;9.856;2023-10-31T03:16:50;14.70;;;9.40;;
52838;SDS011;39219;53.678;9.856;2023-10-31T03:19:16;17.60;;;9.10;;
52838;SDS011;39219;53.678;9.856;2023-10-31T03:21:43;16.30;;;8.77;;
52838;SDS011;39219;53.678;9.856;2023-10-31T03:24:09;15.25;;;9.02;;
52838;SDS011;39219;53.678;9.856;2023-10-31T03:26:36;13.77;;;8.32;;
52838;SDS011;39219;53.678;9.856;2023-10-31T03:29:02;13.88;;;8.60;;
52838;SDS011;39219;53.678;9.856;2023-10-31T03:31:30;13.88;;;8.45;;
52838;SDS011;39219;53.678;9.856;2023-10-31T03:33:56;15.63;;;9.00;;
52838;SDS011;39219;53.678;9.856;2023-10-31T03:36:22;15.32;;;8.88;;
52838;SDS011;39219;53.678;9.856;2023-10-31T03:38:48;13.85;;;8.38;;
52838;SDS011;39219;53.678;9.856;2023-10-31T03:41:15;15.32;;;8.80;;
52838;SDS011;39219;53.678;9.856;2023-10-31T03:43:41;12.82;;;7.78;;
52838;SDS011;39219;53.678;9.856;2023-10-31T03:46:07;13.25;;;7.93;;
52838;SDS011;39219;53.678;9.856;2023-10-31T03:48:35;13.45;;;7.63;;
52838;SDS011;39219;53.678;9.856;2023-10-31T03:51:01;14.50;;;8.32;;
52838;SDS011;39219;53.678;9.856;2023-10-31T03:53:27;14.40;;;7.90;;
52838;SDS011;39219;53.678;9.856;2023-10-31T03:55:53;12.63;;;7.88;;
52838;SDS011;39219;53.678;9.856;2023-10-31T03:58:20;12.93;;;7.80;;
52838;SDS011;39219;53.678;9.856;2023-10-31T04:00:47;12.52;;;7.93;;
52838;SDS011;39219;53.678;9.856;2023-10-31T04:03:13;11.98;;;7.05;;
52838;SDS011;39219;53.678;9.856;2023-10-31T04:05:40;14.10;;;8.15;;
52838;SDS011;39219;53.678;9.856;2023-10-31T04:08:07;12.85;;;7.78;;
52838;SDS011;39219;53.678;9.856;2023-10-31T04:10:33;14.05;;;8.20;;
52838;SDS011;39219;53.678;9.856;2023-10-31T04:12:59;14.02;;;7.80;;
52838;SDS011;39219;53.678;9.856;2023-10-31T04:15:26;12.63;;;7.68;;
52838;SDS011;39219;53.678;9.856;2023-10-31T04:17:52;12.77;;;7.60;;
52838;SDS011;39219;53.678;9.856;2023-10-31T04:20:18;12.13;;;7.30;;
52838;SDS011;39219;53.678;9.856;2023-10-31T04:22:46;11.35;;;6.90;;
52838;SDS011;39219;53.678;9.856;2023-10-31T04:25:12;12.43;;;7.30;;
52838;SDS011;39219;53.678;9.856;2023-10-31T04:27:38;12.43;;;7.65;;
52838;SDS011;39219;53.678;9.856;2023-10-31T04:30:05;11.75;;;6.63;;
52838;SDS011;39219;53.678;9.856;2023-10-31T04:32:32;12.23;;;6.80;;
52838;SDS011;39219;53.678;9.856;2023-10-31T04:34:58;12.77;;;6.85;;
52838;SDS011;39219;53.678;9.856;2023-10-31T04:37:24;11.32;;;6.25;;
52838;SDS011;39219;53.678;9.856;2023-10-31T04:39:52;10.80;;;6.47;;
52838;SDS011;39219;53.678;9.856;2023-10-31T04:42:18;10.15;;;6.35;;
52838;SDS011;39219;53.678;9.856;2023-10-31T04:44:45;11.57;;;6.95;;
52838;SDS011;39219;53.678;9.856;2023-10-31T04:47:11;11.20;;;6.75;;
52838;SDS011;39219;53.678;9.856;2023-10-31T04:49:38;12.80;;;7.10;;
52838;SDS011;39219;53.678;9.856;2023-10-31T04:52:04;12.63;;;7.28;;
52838;SDS011;39219;53.678;9.856;2023-10-31T04:54:31;14.43;;;7.93;;
52838;SDS011;39219;53.678;9.856;2023-10-31T04:56:58;13.73;;;7.65;;
52838;SDS011;39219;53.678;9.856;2023-10-31T04:59:24;14.65;;;8.27;;
52838;SDS011;39219;53.678;9.856;2023-10-31T05:01:51;13.40;;;7.70;;
52838;SDS011;39219;53.678;9.856;2023-10-31T05:04:17;13.93;;;8.25;;
52838;SDS011;39219;53.678;9.856;2023-10-31T05:06:43;14.75;;;8.50;;
52838;SDS011;39219;53.678;9.856;2023-10-31T05:09:10;16.42;;;8.77;;
52838;SDS011;39219;53.678;9.856;2023-10-31T05:11:37;15.85;;;9.35;;
52838;SDS011;39219;53.678;9.856;2023-10-31T05:14:04;16.23;;;9.23;;
52838;SDS011;39219;53.678;9.856;2023-10-31T05:16:30;18.65;;;9.25;;
52838;SDS011;39219;53.678;9.856;2023-10-31T05:18:57;17.40;;;8.82;;
52838;SDS011;39219;53.678;9.856;2023-10-31T05:21:24;16.50;;;9.02;;
52838;SDS011;39219;53.678;9.856;2023-10-31T05:23:52;18.75;;;9.35;;
52838;SDS011;39219;53.678;9.856;2023-10-31T05:26:18;19.60;;;9.60;;
52838;SDS011;39219;53.678;9.856;2023-10-31T05:28:44;18.63;;;9.30;;
52838;SDS011;39219;53.678;9.856;2023-10-31T05:31:12;18.98;;;10.15;;
52838;SDS011;39219;53.678;9.856;2023-10-31T05:33:41;19.08;;;9.73;;
52838;SDS011;39219;53.678;9.856;2023-10-31T05:36:17;19.70;;;9.93;;
52838;SDS011;39219;53.678;9.856;2023-10-31T05:38:43;19.83;;;9.95;;
52838;SDS011;39219;53.678;9.856;2023-10-31T05:41:09;20.77;;;10.38;;
52838;SDS011;39219;53.678;9.856;2023-10-31T05:43:35;20.17;;;10.02;;
52838;SDS011;39219;53.678;9.856;2023-10-31T05:46:02;21.90;;;10.88;;
52838;SDS011;39219;53.678;9.856;2023-10-31T05:48:29;22.73;;;11.23;;
52838;SDS011;39219;53.678;9.856;2023-10-31T05:50:56;20.67;;;10.40;;
52838;SDS011;39219;53.678;9.856;2023-10-31T05:53:22;20.92;;;10.73;;
52838;SDS011;39219;53.678;9.856;2023-10-31T05:55:49;22.83;;;10.65;;
52838;SDS011;39219;53.678;9.856;2023-10-31T05:58:15;22.50;;;10.93;;
52838;SDS011;39219;53.678;9.856;2023-10-31T06:00:41;21.05;;;10.50;;
52838;SDS011;39219;53.678;9.856;2023-10-31T06:03:07;20.20;;;10.70;;
52838;SDS011;39219;53.678;9.856;2023-10-31T06:05:35;21.65;;;10.07;;
52838;SDS011;39219;53.678;9.856;2023-10-31T06:08:02;26.52;;;11.75;;
52838;SDS011;39219;53.678;9.856;2023-10-31T06:10:28;22.88;;;11.43;;
52838;SDS011;39219;53.678;9.856;2023-10-31T06:12:54;21.92;;;10.95;;
52838;SDS011;39219;53.678;9.856;2023-10-31T06:15:20;21.27;;;11.52;;
52838;SDS011;39219;53.678;9.856;2023-10-31T06:17:47;23.10;;;10.85;;
52838;SDS011;39219;53.678;9.856;2023-10-31T06:20:13;22.00;;;10.63;;
52838;SDS011;39219;53.678;9.856;2023-10-31T06:22:40;22.33;;;10.90;;
52838;SDS011;39219;53.678;9.856;2023-10-31T06:25:07;21.08;;;10.70;;
52838;SDS011;39219;53.678;9.856;2023-10-31T06:27:33;21.25;;;10.57;;
52838;SDS011;39219;53.678;9.856;2023-10-31T06:29:59;22.35;;;10.40;;
52838;SDS011;39219;53.678;9.856;2023-10-31T06:32:26;25.67;;;11.13;;
52838;SDS011;39219;53.678;9.856;2023-10-31T06:34:52;22.70;;;10.50;;
52838;SDS011;39219;53.678;9.856;2023-10-31T06:37:18;22.98;;;10.73;;
52838;SDS011;39219;53.678;9.856;2023-10-31T06:39:46;25.55;;;11.20;;
52838;SDS011;39219;53.678;9.856;2023-10-31T06:42:12;23.60;;;11.35;;
52838;SDS011;39219;53.678;9.856;2023-10-31T06:44:38;22.17;;;11.05;;
52838;SDS011;39219;53.678;9.856;2023-10-31T06:47:05;22.83;;;10.85;;
52838;SDS011;39219;53.678;9.856;2023-10-31T06:49:31;23.13;;;10.75;;
52838;SDS011;39219;53.678;9.856;2023-10-31T06:51:57;22.30;;;11.52;;
52838;SDS011;39219;53.678;9.856;2023-10-31T06:54:24;22.52;;;10.63;;
52838;SDS011;39219;53.678;9.856;2023-10-31T06:56:51;24.40;;;11.40;;
52838;SDS011;39219;53.678;9.856;2023-10-31T06:59:17;22.58;;;10.07;;
52838;SDS011;39219;53.678;9.856;2023-10-31T07:01:44;24.42;;;11.52;;
52838;SDS011;39219;53.678;9.856;2023-10-31T07:04:11;23.80;;;11.13;;
52838;SDS011;39219;53.678;9.856;2023-10-31T07:06:38;25.58;;;11.40;;
52838;SDS011;39219;53.678;9.856;2023-10-31T07:09:04;25.63;;;11.82;;
52838;SDS011;39219;53.678;9.856;2023-10-31T07:11:31;24.88;;;11.32;;
52838;SDS011;39219;53.678;9.856;2023-10-31T07:14:00;25.08;;;10.82;;
52838;SDS011;39219;53.678;9.856;2023-10-31T07:16:27;23.85;;;10.35;;
52838;SDS011;39219;53.678;9.856;2023-10-31T07:18:53;22.45;;;10.65;;
52838;SDS011;39219;53.678;9.856;2023-10-31T07:21:19;22.23;;;10.43;;
52838;SDS011;39219;53.678;9.856;2023-10-31T07:23:45;21.70;;;10.10;;
52838;SDS011;39219;53.678;9.856;2023-10-31T07:26:12;23.77;;;10.57;;
52838;SDS011;39219;53.678;9.856;2023-10-31T07:28:38;23.30;;;10.85;;
52838;SDS011;39219;53.678;9.856;2023-10-31T07:31:06;22.95;;;10.38;;
52838;SDS011;39219;53.678;9.856;2023-10-31T07:33:32;23.05;;;9.50;;
52838;SDS011;39219;53.678;9.856;2023-10-31T07:35:58;21.52;;;9.50;;
52838;SDS011;39219;53.678;9.856;2023-10-31T07:38:24;22.10;;;9.50;;
52838;SDS011;39219;53.678;9.856;2023-10-31T07:40:51;20.20;;;9.07;;
52838;SDS011;39219;53.678;9.856;2023-10-31T07:43:17;20.95;;;8.70;;
52838;SDS011;39219;53.678;9.856;2023-10-31T07:45:43;18.77;;;8.45;;
52838;SDS011;39219;53.678;9.856;2023-10-31T07:48:11;19.52;;;8.15;;
52838;SDS011;39219;53.678;9.856;2023-10-31T07:50:37;16.60;;;7.63;;
52838;SDS011;39219;53.678;9.856;2023-10-31T07:53:04;13.20;;;6.68;;
52838;SDS011;39219;53.678;9.856;2023-10-31T07:55:30;15.25;;;7.65;;
52838;SDS011;39219;53.678;9.856;2023-10-31T07:57:56;13.68;;;7.10;;
52838;SDS011;39219;53.678;9.856;2023-10-31T08:00:22;15.10;;;7.30;;
52838;SDS011;39219;53.678;9.856;2023-10-31T08:02:49;14.57;;;7.38;;
52838;SDS011;39219;53.678;9.856;2023-10-31T08:05:16;13.60;;;7.05;;
52838;SDS011;39219;53.678;9.856;2023-10-31T08:07:43;13.95;;;7.13;;
52838;SDS011;39219;53.678;9.856;2023-10-31T08:10:09;12.80;;;6.75;;
52838;SDS011;39219;53.678;9.856;2023-10-31T08:12:35;10.57;;;5.53;;
52838;SDS011;39219;53.678;9.856;2023-10-31T08:15:02;9.52;;;4.68;;
52838;SDS011;39219;53.678;9.856;2023-10-31T08:17:28;7.53;;;3.90;;
52838;SDS011;39219;53.678;9.856;2023-10-31T08:19:54;7.25;;;3.30;;
52838;SDS011;39219;53.678;9.856;2023-10-31T08:22:22;5.25;;;3.17;;
52838;SDS011;39219;53.678;9.856;2023-10-31T08:24:48;5.68;;;2.92;;
52838;SDS011;39219;53.678;9.856;2023-10-31T08:27:15;6.10;;;3.42;;
52838;SDS011;39219;53.678;9.856;2023-10-31T08:29:41;4.72;;;3.15;;
52838;SDS011;39219;53.678;9.856;2023-10-31T08:32:07;4.95;;;2.85;;
52838;SDS011;39219;53.678;9.856;2023-10-31T08:34:34;3.83;;;2.70;;
52838;SDS011;39219;53.678;9.856;2023-10-31T08:37:00;3.72;;;2.50;;
52838;SDS011;39219;53.678;9.856;2023-10-31T08:39:27;4.13;;;2.60;;
52838;SDS011;39219;53.678;9.856;2023-10-31T08:41:54;4.28;;;2.47;;
52838;SDS011;39219;53.678;9.856;2023-10-31T08:44:21;5.55;;;2.65;;
52838;SDS011;39219;53.678;9.856;2023-10-31T08:46:47;4.40;;;2.20;;
52838;SDS011;39219;53.678;9.856;2023-10-31T08:49:13;5.60;;;3.00;;
52838;SDS011;39219;53.678;9.856;2023-10-31T08:51:40;3.88;;;2.15;;
52838;SDS011;39219;53.678;9.856;2023-10-31T08:54:07;3.85;;;2.08;;
52838;SDS011;39219;53.678;9.856;2023-10-31T08:56:35;3.65;;;2.30;;
52838;SDS011;39219;53.678;9.856;2023-10-31T08:59:01;3.20;;;2.30;;
52838;SDS011;39219;53.678;9.856;2023-10-31T09:01:27;4.15;;;2.38;;
52838;SDS011;39219;53.678;9.856;2023-10-31T09:03:54;2.97;;;2.38;;
52838;SDS011;39219;53.678;9.856;2023-10-31T09:06:20;5.03;;;2.50;;
52838;SDS011;39219;53.678;9.856;2023-10-31T09:08:47;5.63;;;2.78;;
52838;SDS011;39219;53.678;9.856;2023-10-31T09:11:13;4.97;;;2.72;;
52838;SDS011;39219;53.678;9.856;2023-10-31T09:13:41;6.78;;;3.30;;
52838;SDS011;39219;53.678;9.856;2023-10-31T09:16:07;6.20;;;3.33;;
52838;SDS011;39219;53.678;9.856;2023-10-31T09:18:34;4.20;;;2.42;;
52838;SDS011;39219;53.678;9.856;2023-10-31T09:21:00;2.80;;;2.10;;
52838;SDS011;39219;53.678;9.856;2023-10-31T09:23:27;3.28;;;2.10;;
52838;SDS011;39219;53.678;9.856;2023-10-31T09:25:54;2.47;;;1.73;;
52838;SDS011;39219;53.678;9.856;2023-10-31T09:28:21;1.98;;;1.17;;
52838;SDS011;39219;53.678;9.856;2023-10-31T09:30:49;0.77;;;0.70;;
52838;SDS011;39219;53.678;9.856;2023-10-31T09:33:15;0.50;;;0.50;;
52838;SDS011;39219;53.678;9.856;2023-10-31T09:35:42;1.05;;;0.30;;
52838;SDS011;39219;53.678;9.856;2023-10-31T09:38:08;0.40;;;0.40;;
52838;SDS011;39219;53.678;9.856;2023-10-31T09:40:35;0.25;;;0.25;;
52838;SDS011;39219;53.678;9.856;2023-10-31T09:43:02;0.20;;;0.20;;
52838;SDS011;39219;53.678;9.856;2023-10-31T09:45:28;1.15;;;0.30;;
52838;SDS011;39219;53.678;9.856;2023-10-31T09:47:56;0.60;;;0.10;;
52838;SDS011;39219;53.678;9.856;2023-10-31T09:50:23;0.10;;;0.10;;
52838;SDS011;39219;53.678;9.856;2023-10-31T09:52:49;0.70;;;0.20;;
52838;SDS011;39219;53.678;9.856;2023-10-31T09:55:16;0.50;;;0.40;;
52838;SDS011;39219;53.678;9.856;2023-10-31T09:57:43;0.47;;;0.40;;
52838;SDS011;39219;53.678;9.856;2023-10-31T10:00:10;0.73;;;0.50;;
52838;SDS011;39219;53.678;9.856;2023-10-31T10:02:36;0.50;;;0.40;;
52838;SDS011;39219;53.678;9.856;2023-10-31T10:05:04;1.48;;;0.50;;
52838;SDS011;39219;53.678;9.856;2023-10-31T10:07:31;0.95;;;0.60;;
52838;SDS011;39219;53.678;9.856;2023-10-31T10:09:59;0.50;;;0.43;;
52838;SDS011;39219;53.678;9.856;2023-10-31T10:12:26;1.27;;;0.75;;
52838;SDS011;39219;53.678;9.856;2023-10-31T10:14:52;2.15;;;0.80;;
52838;SDS011;39219;53.678;9.856;2023-10-31T10:17:20;1.58;;;0.90;;
52838;SDS011;39219;53.678;9.856;2023-10-31T10:19:47;0.93;;;0.70;;
52838;SDS011;39219;53.678;9.856;2023-10-31T10:22:15;2.13;;;0.90;;
52838;SDS011;39219;53.678;9.856;2023-10-31T10:24:45;2.10;;;0.90;;
52838;SDS011;39219;53.678;9.856;2023-10-31T10:27:12;1.58;;;1.15;;
52838;SDS011;39219;53.678;9.856;2023-10-31T10:29:38;1.58;;;0.90;;
52838;SDS011;39219;53.678;9.856;2023-10-31T10:32:06;2.35;;;1.30;;
52838;SDS011;39219;53.678;9.856;2023-10-31T10:34:34;1.30;;;1.13;;
52838;SDS011;39219;53.678;9.856;2023-10-31T10:37:01;2.75;;;1.33;;
52838;SDS011;39219;53.678;9.856;2023-10-31T10:39:31;1.42;;;0.77;;
52838;SDS011;39219;53.678;9.856;2023-10-31T10:41:58;2.67;;;1.08;;
52838;SDS011;39219;53.678;9.856;2023-10-31T10:44:29;2.33;;;1.00;;
52838;SDS011;39219;53.678;9.856;2023-10-31T10:46:57;1.15;;;0.80;;
52838;SDS011;39219;53.678;9.856;2023-10-31T10:49:24;1.45;;;1.23;;
52838;SDS011;39219;53.678;9.856;2023-10-31T10:51:52;2.80;;;1.30;;
52838;SDS011;39219;53.678;9.856;2023-10-31T10:54:19;1.50;;;1.05;;
52838;SDS011;39219;53.678;9.856;2023-10-31T10:56:52;2.13;;;1.17;;
52838;SDS011;39219;53.678;9.856;2023-10-31T10:59:21;3.05;;;1.13;;
52838;SDS011;39219;53.678;9.856;2023-10-31T11:01:47;2.35;;;1.38;;
52838;SDS011;39219;53.678;9.856;2023-10-31T11:04:15;2.28;;;1.75;;
52838;SDS011;39219;53.678;9.856;2023-10-31T11:06:41;2.35;;;1.83;;
52838;SDS011;39219;53.678;9.856;2023-10-31T11:09:09;1.63;;;1.52;;
52838;SDS011;39219;53.678;9.856;2023-10-31T11:11:35;4.45;;;1.98;;
52838;SDS011;39219;53.678;9.856;2023-10-31T11:14:04;2.72;;;1.95;;
52838;SDS011;39219;53.678;9.856;2023-10-31T11:16:33;3.22;;;1.77;;
52838;SDS011;39219;53.678;9.856;2023-10-31T11:19:00;2.80;;;1.73;;
52838;SDS011;39219;53.678;9.856;2023-10-31T11:21:27;1.63;;;1.52;;
52838;SDS011;39219;53.678;9.856;2023-10-31T11:23:56;1.48;;;1.10;;
52838;SDS011;39219;53.678;9.856;2023-10-31T11:26:25;5.47;;;1.80;;
52838;SDS011;39219;53.678;9.856;2023-10-31T11:28:51;1.52;;;1.40;;
52838;SDS011;39219;53.678;9.856;2023-10-31T11:31:19;2.13;;;1.58;;
52838;SDS011;39219;53.678;9.856;2023-10-31T11:33:46;1.70;;;1.60;;
52838;SDS011;39219;53.678;9.856;2023-10-31T11:36:13;2.97;;;1.88;;
52838;SDS011;39219;53.678;9.856;2023-10-31T11:38:40;2.80;;;2.20;;
52838;SDS011;39219;53.678;9.856;2023-10-31T11:41:07;2.22;;;1.80;;
52838;SDS011;39219;53.678;9.856;2023-10-31T11:46:20;2.42;;;1.90;;
52838;SDS011;39219;53.678;9.856;2023-10-31T11:48:49;3.20;;;1.80;;
52838;SDS011;39219;53.678;9.856;2023-10-31T11:51:16;3.78;;;2.13;;
52838;SDS011;39219;53.678;9.856;2023-10-31T11:53:42;3.22;;;2.00;;
52838;SDS011;39219;53.678;9.856;2023-10-31T11:56:09;4.68;;;2.20;;
52838;SDS011;39219;53.678;9.856;2023-10-31T11:58:36;4.03;;;2.20;;
52838;SDS011;39219;53.678;9.856;2023-10-31T12:01:03;4.32;;;2.67;;
52838;SDS011;39219;53.678;9.856;2023-10-31T12:03:37;4.78;;;2.90;;
52838;SDS011;39219;53.678;9.856;2023-10-31T12:06:04;5.03;;;3.00;;
52838;SDS011;39219;53.678;9.856;2023-10-31T12:08:31;3.92;;;2.50;;
52838;SDS011;39219;53.678;9.856;2023-10-31T12:11:07;5.18;;;1.90;;
52838;SDS011;39219;53.678;9.856;2023-10-31T12:13:34;1.90;;;1.50;;
52838;SDS011;39219;53.678;9.856;2023-10-31T12:16:00;5.18;;;1.55;;
52838;SDS011;39219;53.678;9.856;2023-10-31T12:18:27;1.48;;;1.00;;
52838;SDS011;39219;53.678;9.856;2023-10-31T12:20:55;1.35;;;0.90;;
52838;SDS011;39219;53.678;9.856;2023-10-31T12:23:21;1.52;;;0.93;;
52838;SDS011;39219;53.678;9.856;2023-10-31T12:25:48;2.22;;;0.80;;
52838;SDS011;39219;53.678;9.856;2023-10-31T12:28:17;1.33;;;0.77;;
52838;SDS011;39219;53.678;9.856;2023-10-31T12:30:46;0.95;;;0.60;;
52838;SDS011;39219;53.678;9.856;2023-10-31T12:33:13;1.00;;;0.60;;
52838;SDS011;39219;53.678;9.856;2023-10-31T12:35:39;1.40;;;0.77;;
52838;SDS011;39219;53.678;9.856;2023-10-31T12:38:07;1.55;;;1.45;;
52838;SDS011;39219;53.678;9.856;2023-10-31T12:40:35;1.05;;;0.70;;
52838;SDS011;39219;53.678;9.856;2023-10-31T12:43:02;2.25;;;0.90;;
52838;SDS011;39219;53.678;9.856;2023-10-31T12:45:29;0.85;;;0.80;;
52838;SDS011;39219;53.678;9.856;2023-10-31T12:48:01;0.80;;;0.70;;
52838;SDS011;39219;53.678;9.856;2023-10-31T12:50:28;1.40;;;0.57;;
52838;SDS011;39219;53.678;9.856;2023-10-31T12:52:55;1.45;;;0.70;;
52838;SDS011;39219;53.678;9.856;2023-10-31T12:55:24;1.15;;;1.00;;
52838;SDS011;39219;53.678;9.856;2023-10-31T12:57:51;1.95;;;1.00;;
52838;SDS011;39219;53.678;9.856;2023-10-31T13:00:18;1.40;;;0.70;;
52838;SDS011;39219;53.678;9.856;2023-10-31T13:02:49;1.48;;;0.70;;
52838;SDS011;39219;53.678;9.856;2023-10-31T13:05:16;0.55;;;0.55;;
52838;SDS011;39219;53.678;9.856;2023-10-31T13:07:47;1.33;;;0.70;;
52838;SDS011;39219;53.678;9.856;2023-10-31T13:10:15;1.52;;;1.05;;
52838;SDS011;39219;53.678;9.856;2023-10-31T13:12:44;2.70;;;1.10;;
52838;SDS011;39219;53.678;9.856;2023-10-31T13:15:11;2.58;;;0.98;;
52838;SDS011;39219;53.678;9.856;2023-10-31T13:17:38;1.00;;;0.90;;
52838;SDS011;39219;53.678;9.856;2023-10-31T13:20:07;1.77;;;1.10;;
52838;SDS011;39219;53.678;9.856;2023-10-31T13:22:34;2.83;;;1.45;;
52838;SDS011;39219;53.678;9.856;2023-10-31T13:25:00;3.30;;;1.70;;
52838;SDS011;39219;53.678;9.856;2023-10-31T13:27:26;1.77;;;1.35;;
52838;SDS011;39219;53.678;9.856;2023-10-31T13:29:54;1.38;;;1.25;;
52838;SDS011;39219;53.678;9.856;2023-10-31T13:32:20;2.78;;;1.30;;
52838;SDS011;39219;53.678;9.856;2023-10-31T13:34:47;3.05;;;1.00;;
52838;SDS011;39219;53.678;9.856;2023-10-31T13:37:13;2.05;;;0.98;;
52838;SDS011;39219;53.678;9.856;2023-10-31T13:39:39;2.50;;;1.90;;
52838;SDS011;39219;53.678;9.856;2023-10-31T13:42:05;3.15;;;2.20;;
52838;SDS011;39219;53.678;9.856;2023-10-31T13:44:32;3.95;;;2.40;;
52838;SDS011;39219;53.678;9.856;2023-10-31T13:46:59;5.22;;;3.28;;
52838;SDS011;39219;53.678;9.856;2023-10-31T13:49:26;4.63;;;3.40;;
52838;SDS011;39219;53.678;9.856;2023-10-31T13:51:52;5.75;;;3.70;;
52838;SDS011;39219;53.678;9.856;2023-10-31T13:54:18;6.75;;;3.60;;
52838;SDS011;39219;53.678;9.856;2023-10-31T13:56:45;4.80;;;3.50;;
52838;SDS011;39219;53.678;9.856;2023-10-31T13:59:11;6.55;;;3.70;;
52838;SDS011;39219;53.678;9.856;2023-10-31T14:01:37;5.63;;;3.75;;
52838;SDS011;39219;53.678;9.856;2023-10-31T14:04:05;7.60;;;4.20;;
52838;SDS011;39219;53.678;9.856;2023-10-31T14:06:32;6.40;;;3.97;;
52838;SDS011;39219;53.678;9.856;2023-10-31T14:08:58;8.18;;;4.30;;
52838;SDS011;39219;53.678;9.856;2023-10-31T14:11:25;6.70;;;3.53;;
52838;SDS011;39219;53.678;9.856;2023-10-31T14:13:51;5.93;;;3.60;;
52838;SDS011;39219;53.678;9.856;2023-10-31T14:16:18;6.55;;;3.42;;
52838;SDS011;39219;53.678;9.856;2023-10-31T14:18:44;7.03;;;3.47;;
52838;SDS011;39219;53.678;9.856;2023-10-31T14:21:12;5.55;;;3.33;;
52838;SDS011;39219;53.678;9.856;2023-10-31T14:23:38;6.28;;;3.13;;
52838;SDS011;39219;53.678;9.856;2023-10-31T14:26:05;5.70;;;3.08;;
52838;SDS011;39219;53.678;9.856;2023-10-31T14:28:31;6.38;;;2.83;;
52838;SDS011;39219;53.678;9.856;2023-10-31T14:30:57;3.90;;;2.55;;
52838;SDS011;39219;53.678;9.856;2023-10-31T14:33:24;4.57;;;2.65;;
52838;SDS011;39219;53.678;9.856;2023-10-31T14:35:50;3.35;;;2.25;;
52838;SDS011;39219;53.678;9.856;2023-10-31T14:38:18;4.53;;;2.05;;